ENZV Airport Information

Runway Information
Runway 11 Length 8035 ft width 148 ft
Elevation 7 ft Threshold 329 ft Heading 106
Runway 29 Length 8035 ft Width 148 ft
Elevation 27 ft Threshold 501 ft Heading 286
Runway 18 Length 9369 ft width 197 ft
Elevation 9 ft Threshold 492 ft Heading 179
Runway 36 Length 9369 ft Width 197 ft
Elevation 29 ft Threshold 492 ft Heading 359
Airport Frequencies
Type APP Name RADAR Frequency 119.6 MHZ
Type ARR Name ARR Frequency 118.5 MHZ
Type ATIS Name ATIS Frequency 126 MHZ
Type GND Name GND Frequency 121.75 MHZ
Type TWR Name TWR Frequency 118.35 MHZ
Airport Navaids
Type NDB Name Rennesoy Frequency 378 KHZ
Type TACAN Name Sola Frequency 112250 KHZ
Type NDB Name Varhaug Frequency 319 KHZ
Type NDB Name Sola Frequency 352 KHZ
Type VOR-DME Name Sola Frequency 116850 KHZ
Airport Weather Information & NOTAM
ADDS - METARS form results

(0931 UTC 08 August 2022)
Data provider http://aviationweather.gov/metar/data/
 
METAR text: ENZV 080920Z VRB04KT 9999 SCT020 BKN027 17/11 Q1025
Conditions at: ENZV (STAVANGER/SOLA(A, NO) observed 0920 UTC 08 August 2022
Temperature: 17.0°C (63°F)
Dewpoint: 11.0°C (52°F) [RH = 68%]
Pressure (altimeter): 30.27 inches Hg (1025.0 mb)
Winds: variable direction winds at 5 MPH (4 knots; 2.1 m/s)
Visibility: 6 or more miles (10+ km)
Ceiling: 2700 feet AGL
Clouds: scattered clouds at 2000 feet AGL
broken clouds at 2700 feet AGL
Weather: no significant weather observed at this time

METAR text: ENZV 080850Z 35004KT 310V020 9999 FEW020 BKN040 15/10 Q1025
Conditions at: ENZV (STAVANGER/SOLA(A, NO) observed 0850 UTC 08 August 2022
Temperature: 15.0°C (59°F)
Dewpoint: 10.0°C (50°F) [RH = 72%]
Pressure (altimeter): 30.27 inches Hg (1025.0 mb)
Winds: from the N (350 degrees) at 5 MPH (4 knots; 2.1 m/s)
Visibility: 6 or more miles (10+ km)
Ceiling: 4000 feet AGL
Clouds: few clouds at 2000 feet AGL
broken clouds at 4000 feet AGL
Weather: no significant weather observed at this time

Forecast for: ENZV (STAVANGER/SOLA(A, NO)
Text: TAF ENZV 0806/0906 30005KT 9999 FEW018 BKN030
Forecast period: 0600 UTC 08 August 2022 to 0600 UTC 09 August 2022
Forecast type: FROM: standard forecast or significant change
Winds: from the WNW (300 degrees) at 6 MPH (5 knots; 2.6 m/s)
Visibility: 6 or more miles (10+ km)
Ceiling: 3000 feet AGL
Clouds: few clouds at 1800 feet AGL
broken clouds at 3000 feet AGL
Weather: no significant weather forecast for this period
Text: TEMPO 0818/0906 BKN012
Forecast period: 1800 UTC 08 August 2022 to 0600 UTC 09 August 2022
Forecast type: TEMPORARY: The following changes expected for less than half the time period
Visibility: missing
Ceiling: 1200 feet AGL
Clouds: broken clouds at 1200 feet AGL
Weather: no significant weather forecast for this period